<?xml version="1.0" encoding="utf-8"?>
<gpx xmlns:xsi="http://www.w3.org/2001/XMLSchema-instance" xmlns:xsd="http://www.w3.org/2001/XMLSchema" version="1.1" creator="Shapelink.com" xmlns="http://www.topografix.com/GPX/1/1" xmlns:gpxtpx="http://www.garmin.com/xmlschemas/TrackPointExtension/v1">
  <metadata>
    <name>Löpning 5.06 km, 2019-08-06</name>
    <desc></desc>
    <author><name>Marian Moron</name></author> 
    <time>2019-08-06T19:15:38Z</time>
  </metadata>
  <trk>
    <name>Löpning 5.06 km, 2019-08-06</name>
    <trkseg>
      <trkpt lat="51.215455524704" lon="4.483190307916">
        <ele>5.8</ele>
        <time>2019-08-06T19:15:38Z</time>
      </trkpt>
      <trkpt lat="51.215404814209" lon="4.482892666647">
        <ele>4.6</ele>
        <time>2019-08-06T19:15:44Z</time>
      </trkpt>
      <trkpt lat="51.215271541999" lon="4.482647244615">
        <ele>3.6</ele>
        <time>2019-08-06T19:15:51Z</time>
      </trkpt>
      <trkpt lat="51.2150937619" lon="4.482509865274">
        <ele>3.6</ele>
        <time>2019-08-06T19:15:58Z</time>
      </trkpt>
      <trkpt lat="51.214910785023" lon="4.482508691808">
        <ele>4.8</ele>
        <time>2019-08-06T19:16:04Z</time>
      </trkpt>
      <trkpt lat="51.214732334372" lon="4.482660739474">
        <ele>5</ele>
        <time>2019-08-06T19:16:11Z</time>
      </trkpt>
      <trkpt lat="51.214613227573" lon="4.482916974157">
        <ele>3.2</ele>
        <time>2019-08-06T19:16:17Z</time>
      </trkpt>
      <trkpt lat="51.214566708028" lon="4.483222997326">
        <ele>4</ele>
        <time>2019-08-06T19:16:23Z</time>
      </trkpt>
      <trkpt lat="51.214579364697" lon="4.483526841201">
        <ele>7</ele>
        <time>2019-08-06T19:16:29Z</time>
      </trkpt>
      <trkpt lat="51.214588668606" lon="4.483815932932">
        <ele>8.2</ele>
        <time>2019-08-06T19:16:35Z</time>
      </trkpt>
      <trkpt lat="51.214612054107" lon="4.48411030526">
        <ele>9.2</ele>
        <time>2019-08-06T19:16:41Z</time>
      </trkpt>
      <trkpt lat="51.214635942522" lon="4.484394954584">
        <ele>11.2</ele>
        <time>2019-08-06T19:16:47Z</time>
      </trkpt>
      <trkpt lat="51.21468975432" lon="4.484683208125">
        <ele>9.2</ele>
        <time>2019-08-06T19:16:54Z</time>
      </trkpt>
      <trkpt lat="51.214820679598" lon="4.484886301562">
        <ele>6.8</ele>
        <time>2019-08-06T19:17:01Z</time>
      </trkpt>
      <trkpt lat="51.214991754177" lon="4.484984369792">
        <ele>4.4</ele>
        <time>2019-08-06T19:17:08Z</time>
      </trkpt>
      <trkpt lat="51.215185208429" lon="4.48494178974">
        <ele>4.6</ele>
        <time>2019-08-06T19:17:15Z</time>
      </trkpt>
      <trkpt lat="51.215355528637" lon="4.484769541695">
        <ele>4.8</ele>
        <time>2019-08-06T19:17:22Z</time>
      </trkpt>
      <trkpt lat="51.215458206912" lon="4.484500482705">
        <ele>6.2</ele>
        <time>2019-08-06T19:17:29Z</time>
      </trkpt>
      <trkpt lat="51.215474132522" lon="4.48420921168">
        <ele>5.2</ele>
        <time>2019-08-06T19:17:35Z</time>
      </trkpt>
      <trkpt lat="51.215463738966" lon="4.483913246791">
        <ele>4.6</ele>
        <time>2019-08-06T19:17:41Z</time>
      </trkpt>
      <trkpt lat="51.215453513048" lon="4.483619545015">
        <ele>3.2</ele>
        <time>2019-08-06T19:17:47Z</time>
      </trkpt>
      <trkpt lat="51.215444460596" lon="4.483291058354">
        <ele>2.6</ele>
        <time>2019-08-06T19:17:54Z</time>
      </trkpt>
      <trkpt lat="51.215411771186" lon="4.482968522842">
        <ele>2.6</ele>
        <time>2019-08-06T19:18:01Z</time>
      </trkpt>
      <trkpt lat="51.215305069599" lon="4.482715138005">
        <ele>2.4</ele>
        <time>2019-08-06T19:18:07Z</time>
      </trkpt>
      <trkpt lat="51.215148579526" lon="4.482568622393">
        <ele>4.2</ele>
        <time>2019-08-06T19:18:13Z</time>
      </trkpt>
      <trkpt lat="51.214952023971" lon="4.482522102848">
        <ele>3.6</ele>
        <time>2019-08-06T19:18:20Z</time>
      </trkpt>
      <trkpt lat="51.214780446478" lon="4.482613214101">
        <ele>5.2</ele>
        <time>2019-08-06T19:18:26Z</time>
      </trkpt>
      <trkpt lat="51.214645162612" lon="4.482831814053">
        <ele>6.2</ele>
        <time>2019-08-06T19:18:32Z</time>
      </trkpt>
      <trkpt lat="51.214570396064" lon="4.483119648499">
        <ele>5.2</ele>
        <time>2019-08-06T19:18:38Z</time>
      </trkpt>
      <trkpt lat="51.214567797675" lon="4.483436735776">
        <ele>4.2</ele>
        <time>2019-08-06T19:18:44Z</time>
      </trkpt>
      <trkpt lat="51.21458498057" lon="4.483758852193">
        <ele>5</ele>
        <time>2019-08-06T19:18:50Z</time>
      </trkpt>
      <trkpt lat="51.214603001655" lon="4.484084069913">
        <ele>5.4</ele>
        <time>2019-08-06T19:18:57Z</time>
      </trkpt>
      <trkpt lat="51.214620771283" lon="4.484403168846">
        <ele>4.6</ele>
        <time>2019-08-06T19:19:04Z</time>
      </trkpt>
      <trkpt lat="51.21468137242" lon="4.484689913645">
        <ele>5.4</ele>
        <time>2019-08-06T19:19:11Z</time>
      </trkpt>
      <trkpt lat="51.214825624919" lon="4.484895437833">
        <ele>7.8</ele>
        <time>2019-08-06T19:19:18Z</time>
      </trkpt>
      <trkpt lat="51.215013379479" lon="4.484976826082">
        <ele>10.6</ele>
        <time>2019-08-06T19:19:25Z</time>
      </trkpt>
      <trkpt lat="51.215197446003" lon="4.484907340131">
        <ele>10.8</ele>
        <time>2019-08-06T19:19:32Z</time>
      </trkpt>
      <trkpt lat="51.215330466756" lon="4.484715646078">
        <ele>10.8</ele>
        <time>2019-08-06T19:19:38Z</time>
      </trkpt>
      <trkpt lat="51.215423002932" lon="4.484472068064">
        <ele>9.8</ele>
        <time>2019-08-06T19:19:44Z</time>
      </trkpt>
      <trkpt lat="51.215452842496" lon="4.484180461763">
        <ele>9</ele>
        <time>2019-08-06T19:19:50Z</time>
      </trkpt>
      <trkpt lat="51.215425936597" lon="4.48385381912">
        <ele>10.2</ele>
        <time>2019-08-06T19:19:57Z</time>
      </trkpt>
      <trkpt lat="51.215409675711" lon="4.483564475932">
        <ele>11.2</ele>
        <time>2019-08-06T19:20:03Z</time>
      </trkpt>
      <trkpt lat="51.215403640743" lon="4.483242862429">
        <ele>9.8</ele>
        <time>2019-08-06T19:20:09Z</time>
      </trkpt>
      <trkpt lat="51.215403808381" lon="4.483191565201">
        <ele>9.4</ele>
        <time>2019-08-06T19:20:10Z</time>
      </trkpt>
      <trkpt lat="51.215351672963" lon="4.482853774631">
        <ele>7.8</ele>
        <time>2019-08-06T19:20:19Z</time>
      </trkpt>
      <trkpt lat="51.215227537024" lon="4.482617405051">
        <ele>7.8</ele>
        <time>2019-08-06T19:20:28Z</time>
      </trkpt>
      <trkpt lat="51.215053864056" lon="4.48253283168">
        <ele>9.8</ele>
        <time>2019-08-06T19:20:36Z</time>
      </trkpt>
      <trkpt lat="51.214871893007" lon="4.48256719747">
        <ele>10.6</ele>
        <time>2019-08-06T19:20:45Z</time>
      </trkpt>
      <trkpt lat="51.214703919731" lon="4.482730476882">
        <ele>10</ele>
        <time>2019-08-06T19:20:54Z</time>
      </trkpt>
      <trkpt lat="51.214603588388" lon="4.482978413484">
        <ele>7.4</ele>
        <time>2019-08-06T19:21:02Z</time>
      </trkpt>
      <trkpt lat="51.214569138779" lon="4.483273959278">
        <ele>5.6</ele>
        <time>2019-08-06T19:21:10Z</time>
      </trkpt>
      <trkpt lat="51.21456654039" lon="4.483581323551">
        <ele>3</ele>
        <time>2019-08-06T19:21:18Z</time>
      </trkpt>
      <trkpt lat="51.214576431032" lon="4.483875947336">
        <ele>2.2</ele>
        <time>2019-08-06T19:21:26Z</time>
      </trkpt>
      <trkpt lat="51.214587662778" lon="4.484195716821">
        <ele>2</ele>
        <time>2019-08-06T19:21:34Z</time>
      </trkpt>
      <trkpt lat="51.214594619755" lon="4.484505176569">
        <ele>1.6</ele>
        <time>2019-08-06T19:21:42Z</time>
      </trkpt>
      <trkpt lat="51.214690676329" lon="4.484765266926">
        <ele>2</ele>
        <time>2019-08-06T19:21:50Z</time>
      </trkpt>
      <trkpt lat="51.214861080356" lon="4.484924858302">
        <ele>3</ele>
        <time>2019-08-06T19:21:58Z</time>
      </trkpt>
      <trkpt lat="51.215043219043" lon="4.484963415042">
        <ele>2</ele>
        <time>2019-08-06T19:22:06Z</time>
      </trkpt>
      <trkpt lat="51.215230638327" lon="4.484880182775">
        <ele>4</ele>
        <time>2019-08-06T19:22:15Z</time>
      </trkpt>
      <trkpt lat="51.215384530011" lon="4.484699804287">
        <ele>5.6</ele>
        <time>2019-08-06T19:22:23Z</time>
      </trkpt>
      <trkpt lat="51.215462733138" lon="4.484430577659">
        <ele>6.2</ele>
        <time>2019-08-06T19:22:31Z</time>
      </trkpt>
      <trkpt lat="51.215456530532" lon="4.484115166762">
        <ele>7</ele>
        <time>2019-08-06T19:22:39Z</time>
      </trkpt>
      <trkpt lat="51.215445634062" lon="4.483792798888">
        <ele>7.8</ele>
        <time>2019-08-06T19:22:47Z</time>
      </trkpt>
      <trkpt lat="51.215425601321" lon="4.483473532317">
        <ele>8.4</ele>
        <time>2019-08-06T19:22:55Z</time>
      </trkpt>
      <trkpt lat="51.215358043207" lon="4.482884703842">
        <ele>6.8</ele>
        <time>2019-08-06T19:23:08Z</time>
      </trkpt>
      <trkpt lat="51.215220663866" lon="4.482648669538">
        <ele>6.8</ele>
        <time>2019-08-06T19:23:14Z</time>
      </trkpt>
      <trkpt lat="51.215043386681" lon="4.482554289344">
        <ele>7</ele>
        <time>2019-08-06T19:23:20Z</time>
      </trkpt>
      <trkpt lat="51.214849178058" lon="4.482588068401">
        <ele>5.8</ele>
        <time>2019-08-06T19:23:26Z</time>
      </trkpt>
      <trkpt lat="51.214687575026" lon="4.482802980317">
        <ele>4.6</ele>
        <time>2019-08-06T19:23:32Z</time>
      </trkpt>
      <trkpt lat="51.214607695519" lon="4.483061142837">
        <ele>3.4</ele>
        <time>2019-08-06T19:23:37Z</time>
      </trkpt>
      <trkpt lat="51.214595541764" lon="4.483352497681">
        <ele>2</ele>
        <time>2019-08-06T19:23:42Z</time>
      </trkpt>
      <trkpt lat="51.214604342759" lon="4.483688779509">
        <ele>0.6</ele>
        <time>2019-08-06T19:23:48Z</time>
      </trkpt>
      <trkpt lat="51.214612976116" lon="4.484009471003">
        <ele>1.8</ele>
        <time>2019-08-06T19:23:54Z</time>
      </trkpt>
      <trkpt lat="51.214627812079" lon="4.484331419782">
        <ele>4.2</ele>
        <time>2019-08-06T19:24:00Z</time>
      </trkpt>
      <trkpt lat="51.214665027715" lon="4.484611961975">
        <ele>4</ele>
        <time>2019-08-06T19:24:06Z</time>
      </trkpt>
      <trkpt lat="51.214787068179" lon="4.484834669058">
        <ele>5.2</ele>
        <time>2019-08-06T19:24:12Z</time>
      </trkpt>
      <trkpt lat="51.214957807482" lon="4.4849702882">
        <ele>6.4</ele>
        <time>2019-08-06T19:24:18Z</time>
      </trkpt>
      <trkpt lat="51.215140784359" lon="4.484948830536">
        <ele>8.2</ele>
        <time>2019-08-06T19:24:24Z</time>
      </trkpt>
      <trkpt lat="51.215302555029" lon="4.48479678287">
        <ele>9.2</ele>
        <time>2019-08-06T19:24:30Z</time>
      </trkpt>
      <trkpt lat="51.215416129774" lon="4.484553875408">
        <ele>9.8</ele>
        <time>2019-08-06T19:24:36Z</time>
      </trkpt>
      <trkpt lat="51.215469941572" lon="4.484277607984">
        <ele>9.4</ele>
        <time>2019-08-06T19:24:42Z</time>
      </trkpt>
      <trkpt lat="51.215454435057" lon="4.483971333358">
        <ele>9</ele>
        <time>2019-08-06T19:24:48Z</time>
      </trkpt>
      <trkpt lat="51.215437503619" lon="4.483648546389">
        <ele>9</ele>
        <time>2019-08-06T19:24:54Z</time>
      </trkpt>
      <trkpt lat="51.215429373176" lon="4.483322658117">
        <ele>9.2</ele>
        <time>2019-08-06T19:25:00Z</time>
      </trkpt>
      <trkpt lat="51.215400707078" lon="4.483009258876">
        <ele>9.2</ele>
        <time>2019-08-06T19:25:06Z</time>
      </trkpt>
      <trkpt lat="51.215296939156" lon="4.482751180175">
        <ele>11.4</ele>
        <time>2019-08-06T19:25:12Z</time>
      </trkpt>
      <trkpt lat="51.215132570097" lon="4.482588822772">
        <ele>12.6</ele>
        <time>2019-08-06T19:25:18Z</time>
      </trkpt>
      <trkpt lat="51.214943306795" lon="4.482564515262">
        <ele>13.2</ele>
        <time>2019-08-06T19:25:24Z</time>
      </trkpt>
      <trkpt lat="51.214763431221" lon="4.482646322606">
        <ele>13</ele>
        <time>2019-08-06T19:25:30Z</time>
      </trkpt>
      <trkpt lat="51.214622196206" lon="4.482865928386">
        <ele>11.8</ele>
        <time>2019-08-06T19:25:36Z</time>
      </trkpt>
      <trkpt lat="51.21455648211" lon="4.483164072569">
        <ele>9.8</ele>
        <time>2019-08-06T19:25:42Z</time>
      </trkpt>
      <trkpt lat="51.214558661404" lon="4.483497839827">
        <ele>8.4</ele>
        <time>2019-08-06T19:25:48Z</time>
      </trkpt>
      <trkpt lat="51.214580286706" lon="4.483806712842">
        <ele>8.2</ele>
        <time>2019-08-06T19:25:54Z</time>
      </trkpt>
      <trkpt lat="51.214597972515" lon="4.484130505639">
        <ele>7.8</ele>
        <time>2019-08-06T19:26:00Z</time>
      </trkpt>
      <trkpt lat="51.214605516225" lon="4.484457483558">
        <ele>6.6</ele>
        <time>2019-08-06T19:26:06Z</time>
      </trkpt>
      <trkpt lat="51.214685395732" lon="4.484739450674">
        <ele>5.8</ele>
        <time>2019-08-06T19:26:12Z</time>
      </trkpt>
      <trkpt lat="51.214842472538" lon="4.484916560221">
        <ele>4.4</ele>
        <time>2019-08-06T19:26:18Z</time>
      </trkpt>
      <trkpt lat="51.215038106084" lon="4.484975484978">
        <ele>2.6</ele>
        <time>2019-08-06T19:26:24Z</time>
      </trkpt>
      <trkpt lat="51.215230638327" lon="4.484884960458">
        <ele>2.6</ele>
        <time>2019-08-06T19:26:30Z</time>
      </trkpt>
      <trkpt lat="51.215374471731" lon="4.484694272233">
        <ele>3.4</ele>
        <time>2019-08-06T19:26:35Z</time>
      </trkpt>
      <trkpt lat="51.215463990423" lon="4.484433343686">
        <ele>4.8</ele>
        <time>2019-08-06T19:26:40Z</time>
      </trkpt>
      <trkpt lat="51.215483687888" lon="4.484146934163">
        <ele>6</ele>
        <time>2019-08-06T19:26:45Z</time>
      </trkpt>
      <trkpt lat="51.215461811129" lon="4.483862033382">
        <ele>6.8</ele>
        <time>2019-08-06T19:26:50Z</time>
      </trkpt>
      <trkpt lat="51.215450160288" lon="4.483527511753">
        <ele>6.6</ele>
        <time>2019-08-06T19:26:56Z</time>
      </trkpt>
      <trkpt lat="51.215440018189" lon="4.483220482756">
        <ele>6</ele>
        <time>2019-08-06T19:27:02Z</time>
      </trkpt>
      <trkpt lat="51.215396180852" lon="4.482858971409">
        <ele>3.8</ele>
        <time>2019-08-06T19:27:11Z</time>
      </trkpt>
      <trkpt lat="51.215279253347" lon="4.482633079204">
        <ele>2.2</ele>
        <time>2019-08-06T19:27:19Z</time>
      </trkpt>
      <trkpt lat="51.21509962923" lon="4.482515145871">
        <ele>3.4</ele>
        <time>2019-08-06T19:27:28Z</time>
      </trkpt>
      <trkpt lat="51.214918496371" lon="4.482523863047">
        <ele>3.8</ele>
        <time>2019-08-06T19:27:36Z</time>
      </trkpt>
      <trkpt lat="51.214749098172" lon="4.482651603203">
        <ele>5.4</ele>
        <time>2019-08-06T19:27:44Z</time>
      </trkpt>
      <trkpt lat="51.214613395211" lon="4.482880009978">
        <ele>5.2</ele>
        <time>2019-08-06T19:27:52Z</time>
      </trkpt>
      <trkpt lat="51.214560170146" lon="4.483162982922">
        <ele>6.2</ele>
        <time>2019-08-06T19:28:00Z</time>
      </trkpt>
      <trkpt lat="51.214565199286" lon="4.48347914819">
        <ele>5.4</ele>
        <time>2019-08-06T19:28:08Z</time>
      </trkpt>
      <trkpt lat="51.214577101584" lon="4.48380185134">
        <ele>4.8</ele>
        <time>2019-08-06T19:28:17Z</time>
      </trkpt>
      <trkpt lat="51.214604091302" lon="4.484096391306">
        <ele>2.4</ele>
        <time>2019-08-06T19:28:25Z</time>
      </trkpt>
      <trkpt lat="51.214655639987" lon="4.484382214096">
        <ele>2.2</ele>
        <time>2019-08-06T19:28:33Z</time>
      </trkpt>
      <trkpt lat="51.214723784834" lon="4.484650351077">
        <ele>1</ele>
        <time>2019-08-06T19:28:41Z</time>
      </trkpt>
      <trkpt lat="51.214806765644" lon="4.484804661856">
        <ele>0</ele>
        <time>2019-08-06T19:29:04Z</time>
      </trkpt>
      <trkpt lat="51.215000387534" lon="4.484897784765">
        <ele>1</ele>
        <time>2019-08-06T19:29:12Z</time>
      </trkpt>
      <trkpt lat="51.215192584501" lon="4.484835926343">
        <ele>2.6</ele>
        <time>2019-08-06T19:29:20Z</time>
      </trkpt>
      <trkpt lat="51.215338764837" lon="4.484658313882">
        <ele>5.4</ele>
        <time>2019-08-06T19:29:29Z</time>
      </trkpt>
      <trkpt lat="51.215445634062" lon="4.484421776664">
        <ele>7.4</ele>
        <time>2019-08-06T19:29:38Z</time>
      </trkpt>
      <trkpt lat="51.215445969338" lon="4.484114915305">
        <ele>9</ele>
        <time>2019-08-06T19:29:48Z</time>
      </trkpt>
      <trkpt lat="51.215437000705" lon="4.483826913221">
        <ele>7.2</ele>
        <time>2019-08-06T19:29:57Z</time>
      </trkpt>
      <trkpt lat="51.215432809755" lon="4.4835286014">
        <ele>6.4</ele>
        <time>2019-08-06T19:30:07Z</time>
      </trkpt>
      <trkpt lat="51.215409675711" lon="4.483238671479">
        <ele>5.4</ele>
        <time>2019-08-06T19:30:16Z</time>
      </trkpt>
      <trkpt lat="51.215285120677" lon="4.482738942601">
        <ele>6.4</ele>
        <time>2019-08-06T19:30:28Z</time>
      </trkpt>
      <trkpt lat="51.215137012504" lon="4.482565018176">
        <ele>7.2</ele>
        <time>2019-08-06T19:30:33Z</time>
      </trkpt>
      <trkpt lat="51.214935930723" lon="4.482524785056">
        <ele>7.6</ele>
        <time>2019-08-06T19:30:39Z</time>
      </trkpt>
      <trkpt lat="51.214757312434" lon="4.482626373684">
        <ele>7.4</ele>
        <time>2019-08-06T19:30:45Z</time>
      </trkpt>
      <trkpt lat="51.214629153183" lon="4.482842794342">
        <ele>7.4</ele>
        <time>2019-08-06T19:30:51Z</time>
      </trkpt>
      <trkpt lat="51.214564696372" lon="4.483146722036">
        <ele>5.6</ele>
        <time>2019-08-06T19:30:57Z</time>
      </trkpt>
      <trkpt lat="51.214575425204" lon="4.483441681097">
        <ele>5.4</ele>
        <time>2019-08-06T19:31:02Z</time>
      </trkpt>
      <trkpt lat="51.214592859556" lon="4.483741920755">
        <ele>6.2</ele>
        <time>2019-08-06T19:31:07Z</time>
      </trkpt>
      <trkpt lat="51.214610713003" lon="4.484042830965">
        <ele>7.2</ele>
        <time>2019-08-06T19:31:12Z</time>
      </trkpt>
      <trkpt lat="51.214617837618" lon="4.484338628216">
        <ele>6.4</ele>
        <time>2019-08-06T19:31:17Z</time>
      </trkpt>
      <trkpt lat="51.21465203577" lon="4.484621433522">
        <ele>6</ele>
        <time>2019-08-06T19:31:22Z</time>
      </trkpt>
      <trkpt lat="51.214762341574" lon="4.484843972967">
        <ele>6.6</ele>
        <time>2019-08-06T19:31:27Z</time>
      </trkpt>
      <trkpt lat="51.214926794452" lon="4.484962912128">
        <ele>4.6</ele>
        <time>2019-08-06T19:31:32Z</time>
      </trkpt>
      <trkpt lat="51.215124523473" lon="4.484971042571">
        <ele>2.6</ele>
        <time>2019-08-06T19:31:38Z</time>
      </trkpt>
      <trkpt lat="51.215300375735" lon="4.484814720136">
        <ele>3</ele>
        <time>2019-08-06T19:31:44Z</time>
      </trkpt>
      <trkpt lat="51.215429540814" lon="4.484554210684">
        <ele>4</ele>
        <time>2019-08-06T19:31:50Z</time>
      </trkpt>
      <trkpt lat="51.215475389807" lon="4.48424273928">
        <ele>5</ele>
        <time>2019-08-06T19:31:56Z</time>
      </trkpt>
      <trkpt lat="51.21544999265" lon="4.483904445796">
        <ele>5.2</ele>
        <time>2019-08-06T19:32:02Z</time>
      </trkpt>
      <trkpt lat="51.21543155247" lon="4.483565062665">
        <ele>5.8</ele>
        <time>2019-08-06T19:32:08Z</time>
      </trkpt>
      <trkpt lat="51.215411938824" lon="4.483235905452">
        <ele>6.6</ele>
        <time>2019-08-06T19:32:14Z</time>
      </trkpt>
      <trkpt lat="51.215383105088" lon="4.482949998843">
        <ele>6.4</ele>
        <time>2019-08-06T19:32:19Z</time>
      </trkpt>
      <trkpt lat="51.215279169528" lon="4.482675491618">
        <ele>8.4</ele>
        <time>2019-08-06T19:32:25Z</time>
      </trkpt>
      <trkpt lat="51.215099796868" lon="4.482539201924">
        <ele>9.2</ele>
        <time>2019-08-06T19:32:31Z</time>
      </trkpt>
      <trkpt lat="51.214903576589" lon="4.482532915499">
        <ele>8</ele>
        <time>2019-08-06T19:32:37Z</time>
      </trkpt>
      <trkpt lat="51.214724790662" lon="4.482676413627">
        <ele>7.8</ele>
        <time>2019-08-06T19:32:43Z</time>
      </trkpt>
      <trkpt lat="51.214600403266" lon="4.482928792636">
        <ele>5</ele>
        <time>2019-08-06T19:32:49Z</time>
      </trkpt>
      <trkpt lat="51.214560170146" lon="4.483259123315">
        <ele>4.2</ele>
        <time>2019-08-06T19:32:55Z</time>
      </trkpt>
      <trkpt lat="51.214577185403" lon="4.483583838121">
        <ele>4.4</ele>
        <time>2019-08-06T19:33:01Z</time>
      </trkpt>
      <trkpt lat="51.214593697746" lon="4.483906038357">
        <ele>4</ele>
        <time>2019-08-06T19:33:07Z</time>
      </trkpt>
      <trkpt lat="51.214606438234" lon="4.484229914973">
        <ele>4.4</ele>
        <time>2019-08-06T19:33:13Z</time>
      </trkpt>
      <trkpt lat="51.214641558395" lon="4.484552450485">
        <ele>5.2</ele>
        <time>2019-08-06T19:33:19Z</time>
      </trkpt>
      <trkpt lat="51.214776171709" lon="4.484803153114">
        <ele>5</ele>
        <time>2019-08-06T19:33:25Z</time>
      </trkpt>
      <trkpt lat="51.214946072822" lon="4.484919577705">
        <ele>3.6</ele>
        <time>2019-08-06T19:33:30Z</time>
      </trkpt>
      <trkpt lat="51.215140532902" lon="4.484916057307">
        <ele>2.8</ele>
        <time>2019-08-06T19:33:35Z</time>
      </trkpt>
      <trkpt lat="51.215310936929" lon="4.484766775668">
        <ele>4</ele>
        <time>2019-08-06T19:33:40Z</time>
      </trkpt>
      <trkpt lat="51.2154290379" lon="4.484528394432">
        <ele>4.6</ele>
        <time>2019-08-06T19:33:45Z</time>
      </trkpt>
      <trkpt lat="51.215474383979" lon="4.484249780076">
        <ele>5</ele>
        <time>2019-08-06T19:33:50Z</time>
      </trkpt>
      <trkpt lat="51.215450076469" lon="4.483944846554">
        <ele>5.6</ele>
        <time>2019-08-06T19:33:55Z</time>
      </trkpt>
      <trkpt lat="51.21544747808" lon="4.483651060959">
        <ele>4.2</ele>
        <time>2019-08-06T19:34:00Z</time>
      </trkpt>
      <trkpt lat="51.215428702624" lon="4.483312935113">
        <ele>2.2</ele>
        <time>2019-08-06T19:34:06Z</time>
      </trkpt>
      <trkpt lat="51.215412190281" lon="4.482896270864">
        <ele>5.4</ele>
        <time>2019-08-06T19:34:19Z</time>
      </trkpt>
      <trkpt lat="51.215414872489" lon="4.482793844046">
        <ele>5.2</ele>
        <time>2019-08-06T19:34:24Z</time>
      </trkpt>
      <trkpt lat="51.215401796725" lon="4.482769955631">
        <ele>5.8</ele>
        <time>2019-08-06T19:34:26Z</time>
      </trkpt>
      <trkpt lat="51.215386122572" lon="4.48278512687">
        <ele>6</ele>
        <time>2019-08-06T19:34:28Z</time>
      </trkpt>
      <trkpt lat="51.215383859459" lon="4.482820917583">
        <ele>6.2</ele>
        <time>2019-08-06T19:34:30Z</time>
      </trkpt>
      <trkpt lat="51.215391822264" lon="4.482854612821">
        <ele>6.8</ele>
        <time>2019-08-06T19:34:32Z</time>
      </trkpt>
      <trkpt lat="51.215399198336" lon="4.482865760748">
        <ele>6.8</ele>
        <time>2019-08-06T19:34:33Z</time>
      </trkpt>
      <trkpt lat="51.215454854152" lon="4.483248813578">
        <ele>0.6</ele>
        <time>2019-08-06T19:41:28Z</time>
      </trkpt>
      <trkpt lat="51.215391822264" lon="4.482859222866">
        <ele>1.2</ele>
        <time>2019-08-06T19:41:36Z</time>
      </trkpt>
      <trkpt lat="51.215267351049" lon="4.482639952362">
        <ele>0.8</ele>
        <time>2019-08-06T19:41:41Z</time>
      </trkpt>
      <trkpt lat="51.215095270642" lon="4.482529143644">
        <ele>1</ele>
        <time>2019-08-06T19:41:46Z</time>
      </trkpt>
      <trkpt lat="51.214891841929" lon="4.482531574395">
        <ele>2</ele>
        <time>2019-08-06T19:41:51Z</time>
      </trkpt>
      <trkpt lat="51.214714313287" lon="4.482694853807">
        <ele>2.8</ele>
        <time>2019-08-06T19:41:56Z</time>
      </trkpt>
      <trkpt lat="51.214601912008" lon="4.482923009125">
        <ele>3.4</ele>
        <time>2019-08-06T19:42:00Z</time>
      </trkpt>
      <trkpt lat="51.214551536789" lon="4.483203216042">
        <ele>3.6</ele>
        <time>2019-08-06T19:42:04Z</time>
      </trkpt>
      <trkpt lat="51.214561595069" lon="4.483503790976">
        <ele>4.6</ele>
        <time>2019-08-06T19:42:08Z</time>
      </trkpt>
      <trkpt lat="51.214572156263" lon="4.483630776761">
        <ele>4.8</ele>
        <time>2019-08-06T19:42:10Z</time>
      </trkpt>
      <trkpt lat="51.214601241456" lon="4.483916851008">
        <ele>6.2</ele>
        <time>2019-08-06T19:42:15Z</time>
      </trkpt>
      <trkpt lat="51.214624794595" lon="4.484241146719">
        <ele>8.4</ele>
        <time>2019-08-06T19:42:21Z</time>
      </trkpt>
      <trkpt lat="51.214663099878" lon="4.484541386377">
        <ele>9</ele>
        <time>2019-08-06T19:42:27Z</time>
      </trkpt>
      <trkpt lat="51.214762509212" lon="4.484785383486">
        <ele>8</ele>
        <time>2019-08-06T19:42:33Z</time>
      </trkpt>
      <trkpt lat="51.214930398669" lon="4.484945310138">
        <ele>6.8</ele>
        <time>2019-08-06T19:42:40Z</time>
      </trkpt>
      <trkpt lat="51.215120667799" lon="4.484919326248">
        <ele>5.4</ele>
        <time>2019-08-06T19:42:47Z</time>
      </trkpt>
      <trkpt lat="51.215282270831" lon="4.484783790925">
        <ele>5</ele>
        <time>2019-08-06T19:42:53Z</time>
      </trkpt>
      <trkpt lat="51.215398276327" lon="4.484545242051">
        <ele>5</ele>
        <time>2019-08-06T19:42:59Z</time>
      </trkpt>
      <trkpt lat="51.215464409518" lon="4.48426453222">
        <ele>4.8</ele>
        <time>2019-08-06T19:43:05Z</time>
      </trkpt>
      <trkpt lat="51.215465499165" lon="4.483943589269">
        <ele>4.4</ele>
        <time>2019-08-06T19:43:12Z</time>
      </trkpt>
      <trkpt lat="51.215450244107" lon="4.483625747621">
        <ele>3.4</ele>
        <time>2019-08-06T19:43:19Z</time>
      </trkpt>
      <trkpt lat="51.215444795872" lon="4.483308827982">
        <ele>2.4</ele>
        <time>2019-08-06T19:43:26Z</time>
      </trkpt>
      <trkpt lat="51.215435659601" lon="4.483091736772">
        <ele>2.2</ele>
        <time>2019-08-06T19:43:31Z</time>
      </trkpt>
      <trkpt lat="51.214986892675" lon="4.484668791257">
        <ele>4</ele>
        <time>2019-08-06T19:48:07Z</time>
      </trkpt>
      <trkpt lat="51.214939618759" lon="4.484861994052">
        <ele>4.4</ele>
        <time>2019-08-06T19:48:12Z</time>
      </trkpt>
      <trkpt lat="51.214753205303" lon="4.484818994905">
        <ele>5</ele>
        <time>2019-08-06T19:48:17Z</time>
      </trkpt>
      <trkpt lat="51.214609707175" lon="4.484559658919">
        <ele>6</ele>
        <time>2019-08-06T19:48:22Z</time>
      </trkpt>
      <trkpt lat="51.214538963939" lon="4.4842578267">
        <ele>6</ele>
        <time>2019-08-06T19:48:27Z</time>
      </trkpt>
      <trkpt lat="51.21452714546" lon="4.483930345867">
        <ele>5</ele>
        <time>2019-08-06T19:48:33Z</time>
      </trkpt>
      <trkpt lat="51.214518595922" lon="4.483606720708">
        <ele>5.2</ele>
        <time>2019-08-06T19:48:40Z</time>
      </trkpt>
      <trkpt lat="51.214507196538" lon="4.483300865177">
        <ele>3.8</ele>
        <time>2019-08-06T19:48:48Z</time>
      </trkpt>
      <trkpt lat="51.214520775216" lon="4.483004145917">
        <ele>3.6</ele>
        <time>2019-08-06T19:48:56Z</time>
      </trkpt>
      <trkpt lat="51.214630410468" lon="4.48274154099">
        <ele>3.4</ele>
        <time>2019-08-06T19:49:03Z</time>
      </trkpt>
      <trkpt lat="51.214780027383" lon="4.482532244947">
        <ele>3</ele>
        <time>2019-08-06T19:49:11Z</time>
      </trkpt>
      <trkpt lat="51.214960322052" lon="4.482506428695">
        <ele>1.6</ele>
        <time>2019-08-06T19:49:19Z</time>
      </trkpt>
      <trkpt lat="51.215153524847" lon="4.482579351225">
        <ele>0</ele>
        <time>2019-08-06T19:49:26Z</time>
      </trkpt>
      <trkpt lat="51.215322420132" lon="4.482710025046">
        <ele>0</ele>
        <time>2019-08-06T19:49:32Z</time>
      </trkpt>
      <trkpt lat="51.215435240506" lon="4.482931893939">
        <ele>0</ele>
        <time>2019-08-06T19:49:38Z</time>
      </trkpt>
      <trkpt lat="51.21545753636" lon="4.483052090385">
        <ele>0</ele>
        <time>2019-08-06T19:49:41Z</time>
      </trkpt>
      <trkpt lat="51.215471701771" lon="4.483171364822">
        <ele>0</ele>
        <time>2019-08-06T19:54:40Z</time>
      </trkpt>
      <trkpt lat="51.215468600468" lon="4.483144123647">
        <ele>0</ele>
        <time>2019-08-06T19:54:41Z</time>
      </trkpt>
      <trkpt lat="51.215400287983" lon="4.482852265889">
        <ele>0</ele>
        <time>2019-08-06T19:54:47Z</time>
      </trkpt>
      <trkpt lat="51.215285958867" lon="4.482634923222">
        <ele>0.8</ele>
        <time>2019-08-06T19:54:52Z</time>
      </trkpt>
      <trkpt lat="51.215109938967" lon="4.48251942064">
        <ele>2.2</ele>
        <time>2019-08-06T19:54:57Z</time>
      </trkpt>
      <trkpt lat="51.214919586018" lon="4.48251774426">
        <ele>3.6</ele>
        <time>2019-08-06T19:55:02Z</time>
      </trkpt>
      <trkpt lat="51.214750606914" lon="4.482653363402">
        <ele>5</ele>
        <time>2019-08-06T19:55:07Z</time>
      </trkpt>
      <trkpt lat="51.214627309165" lon="4.48286978406">
        <ele>4.8</ele>
        <time>2019-08-06T19:55:12Z</time>
      </trkpt>
      <trkpt lat="51.214563271449" lon="4.483137837222">
        <ele>3.4</ele>
        <time>2019-08-06T19:55:17Z</time>
      </trkpt>
      <trkpt lat="51.214573162091" lon="4.483478896733">
        <ele>3</ele>
        <time>2019-08-06T19:55:23Z</time>
      </trkpt>
      <trkpt lat="51.21459839161" lon="4.48376413279">
        <ele>2.4</ele>
        <time>2019-08-06T19:55:28Z</time>
      </trkpt>
      <trkpt lat="51.21460928808" lon="4.484076107108">
        <ele>1.8</ele>
        <time>2019-08-06T19:55:33Z</time>
      </trkpt>
      <trkpt lat="51.214652957779" lon="4.484370227979">
        <ele>1.6</ele>
        <time>2019-08-06T19:55:38Z</time>
      </trkpt>
      <trkpt lat="51.214743649937" lon="4.484671641103">
        <ele>1.4</ele>
        <time>2019-08-06T19:55:44Z</time>
      </trkpt>
      <trkpt lat="51.214878011794" lon="4.484878674033">
        <ele>2</ele>
        <time>2019-08-06T19:55:50Z</time>
      </trkpt>
      <trkpt lat="51.215068867657" lon="4.484958888816">
        <ele>2.4</ele>
        <time>2019-08-06T19:55:57Z</time>
      </trkpt>
      <trkpt lat="51.215261148443" lon="4.484854198885">
        <ele>1.8</ele>
        <time>2019-08-06T19:56:04Z</time>
      </trkpt>
      <trkpt lat="51.215390900255" lon="4.484624031911">
        <ele>0.8</ele>
        <time>2019-08-06T19:56:10Z</time>
      </trkpt>
      <trkpt lat="51.21546340369" lon="4.484324127529">
        <ele>0.6</ele>
        <time>2019-08-06T19:56:16Z</time>
      </trkpt>
      <trkpt lat="51.215458458369" lon="4.484012404668">
        <ele>0</ele>
        <time>2019-08-06T19:56:22Z</time>
      </trkpt>
      <trkpt lat="51.215442197483" lon="4.483708141698">
        <ele>0</ele>
        <time>2019-08-06T19:56:28Z</time>
      </trkpt>
      <trkpt lat="51.215431636289" lon="4.483398011398">
        <ele>0</ele>
        <time>2019-08-06T19:56:34Z</time>
      </trkpt>
      <trkpt lat="51.215408753702" lon="4.483076230257">
        <ele>0</ele>
        <time>2019-08-06T19:56:40Z</time>
      </trkpt>
      <trkpt lat="51.215342955787" lon="4.482773476029">
        <ele>0</ele>
        <time>2019-08-06T19:56:47Z</time>
      </trkpt>
      <trkpt lat="51.215199122383" lon="4.482581362881">
        <ele>0.8</ele>
        <time>2019-08-06T19:56:55Z</time>
      </trkpt>
      <trkpt lat="51.215009691443" lon="4.48251020055">
        <ele>3</ele>
        <time>2019-08-06T19:57:03Z</time>
      </trkpt>
      <trkpt lat="51.214973146359" lon="4.482525204151">
        <ele>3.6</ele>
        <time>2019-08-06T19:57:05Z</time>
      </trkpt>
      <trkpt lat="51.214966692296" lon="4.482579099768">
        <ele>4.6</ele>
        <time>2019-08-06T19:57:07Z</time>
      </trkpt>
      <trkpt lat="51.214994436385" lon="4.482612208273">
        <ele>4.6</ele>
        <time>2019-08-06T19:57:09Z</time>
      </trkpt>
      <trkpt lat="51.215180849841" lon="4.482631905738">
        <ele>3.4</ele>
        <time>2019-08-06T19:57:16Z</time>
      </trkpt>
      <trkpt lat="51.215345805633" lon="4.482819073565">
        <ele>2.2</ele>
        <time>2019-08-06T19:57:23Z</time>
      </trkpt>
      <trkpt lat="51.215442365121" lon="4.483102633242">
        <ele>0</ele>
        <time>2019-08-06T19:57:30Z</time>
      </trkpt>
      <trkpt lat="51.215468265192" lon="4.483424582021">
        <ele>0</ele>
        <time>2019-08-06T19:57:37Z</time>
      </trkpt>
      <trkpt lat="51.215488884666" lon="4.48375742727">
        <ele>1.2</ele>
        <time>2019-08-06T19:57:44Z</time>
      </trkpt>
      <trkpt lat="51.215492824159" lon="4.483962700001">
        <ele>1.2</ele>
        <time>2019-08-06T19:57:49Z</time>
      </trkpt>
    </trkseg>
  </trk>
</gpx>